Englewood, CO (80155)

10:32 AM MDT on October 23, 2014 (GMT -0600)
Walnut Hills | Change Station
CLOSE
Current Station
Personal Weather Station
Location: Centennial, CO
Elevation: 5800 ft
Nearby Weather Stations

Elev 5800 ft 39.59 °N, 104.89 °W | Updated 27 minutes ago

Partly Cloudy
Partly Cloudy
61.1 °F
Feels Like 61.1 °F
N
2.0
Wind Variable Wind from WSW
Gusts 13.0 mph

Today
High -- | Low -- °F
--% Chance of Precip.
Yesterday
High -- | Low -- °F
Precip. -- in
7:18 AM 6:08 PM
Waning Crescent, 0% visible
Pressure 30.10 in
Visibility 10.0 miles
Clouds Few 15000 ft
Dew Point 31 °F
Humidity 32%
Rainfall -999.00 in
Snow Depth Not available.
UV 2 out of 12
Pollen 2.50 out of 12
PM2.5 Good
Flu Activity Sporadic
METAR KAPA 231553Z 24008KT 230V290 10SM FEW150 16/01 A3021 RMK AO2 SLP191 T01610006

More Conditions Fewer Conditions

Pressure 30.10 in
Visibility 10.0 miles
Clouds Few 15000 ft
Dew Point 31 °F
Humidity 32%
Rainfall -999.00 in
Snow Depth Not available.
UV 2 out of 12
Pollen 2.50 out of 12
PM2.5 Good
Flu Activity Sporadic
METAR KAPA 231553Z 24008KT 230V290 10SM FEW150 16/01 A3021 RMK AO2 SLP191 T01610006

More Conditions Fewer Conditions

10-Day Weather Forecast

Almanac

Astronomy

Oct. 23, 2014 Rise Set
Actual Time 7:18 AM MDT 6:08 PM MDT
Civil Twilight 6:50 AM MDT 6:36 PM MDT
Nautical Twilight 6:19 AM MDT 7:07 PM MDT
Astronomical Twilight 5:47 AM MDT 7:38 PM MDT
Moon 7:00 AM MDT 6:12 PM MDT
Length of Visible Light 11h 45m
Length of Day
10h 50m
Tomorrow will be 2m 25s shorter.
Waning Crescent, 0% of the Moon is Illuminated
Today
Waning Crescent
Oct 23
New
Oct 30
First Quarter
Nov 6
Full
Nov 14
Last Quarter

Today's Extremes

State Highs State Lows

Community

WunderPhotos

Upload Photos

1,764,306 photos uploaded!

WunderBlogs® & News

Nearby

Air Quality

  Air Quality AQ Index Pollutant
Yesterday Good
OZONE
Yesterday Good
PM10
Current Good
PM2.5
Thursday Good
OZONE
Thursday Good
PM2.5

Snow Depth

Station Depth Elevation
Niwot 0 in 9910 ft
University Camp 1 in 10300 ft
Jackwhacker Gulch 1 in 10960 ft
Berthoud Summit 0 in 11300 ft
Glen Cove 1 in 11460 ft

Earthquake Activity

City Distance Mag. Time & Date
No recent earthquake activity has been reported nearby.
Minimum magnitude displayed is 2.5.

Coastal Water Temperatures

Place Temperature
No Stations Reporting

Nearby Weather Stations